Time;durP1;ratioP1;P1;durP2;ratioP2;P2;SDS_P1;SDS_P2;PMS_P1;PMS_P2;Temp;Humidity;BMP_temperature;BMP_pressure;BME280_temperature;BME280_humidity;BME280_pressure;Samples;Min_cycle;Max_cycle;Signal;HPM_P1;HPM_P2
2022/12/09 00:01:22;;;;;;;21.75;7.75;;;;;;;-3.43;57.57;100715.63;5026412;28;20132;-66
2022/12/09 00:03:48;;;;;;;32.58;8.75;;;;;;;-3.25;57.49;100705.66;5023225;28;20041;-67
2022/12/09 00:06:19;;;;;;;50.67;8.20;;;;;;;-3.18;56.86;100707.50;5041695;28;20065;-67
2022/12/09 00:08:45;;;;;;;14.03;6.80;;;;;;;-3.11;56.80;100703.34;5026726;28;20037;-67
2022/12/09 00:11:10;;;;;;;14.45;7.78;;;;;;;-3.12;56.52;100702.44;5024911;28;20047;-68
2022/12/09 00:13:36;;;;;;;15.57;7.63;;;;;;;-3.18;56.59;100704.94;5023159;28;20185;-65
2022/12/09 00:16:10;;;;;;;13.65;6.38;;;;;;;-3.12;56.44;100701.59;5043656;28;20076;-65
2022/12/09 00:18:36;;;;;;;15.00;7.85;;;;;;;-3.18;56.68;100699.84;5025328;28;20425;-66
2022/12/09 00:21:21;;;;;;;13.90;7.32;;;;;;;-3.16;56.42;100695.59;5027655;28;20029;-65
2022/12/09 00:23:48;;;;;;;25.73;8.45;;;;;;;-3.38;56.92;100698.69;5025351;28;20076;-65
2022/12/09 00:26:15;;;;;;;15.65;7.07;;;;;;;-3.27;56.57;100686.94;5024805;28;20509;-66
2022/12/09 00:28:41;;;;;;;22.52;8.65;;;;;;;-3.67;57.34;100696.56;5030893;28;20049;-65
2022/12/09 00:31:11;;;;;;;15.38;8.13;;;;;;;-3.51;57.17;100695.94;5025216;28;20033;-65
2022/12/09 00:33:37;;;;;;;20.52;8.48;;;;;;;-3.40;56.83;100695.25;5039492;28;20505;-65
2022/12/09 00:36:16;;;;;;;14.57;7.72;;;;;;;-3.40;56.32;100696.09;5026307;28;20039;-65
2022/12/09 00:38:42;;;;;;;17.25;8.32;;;;;;;-3.44;56.14;100693.50;5007419;28;20052;-68
2022/12/09 00:41:07;;;;;;;12.77;7.47;;;;;;;-3.46;56.47;100694.31;5013107;28;20037;-64
2022/12/09 00:43:33;;;;;;;16.55;7.15;;;;;;;-3.45;56.48;100692.63;5028149;28;20545;-64
2022/12/09 00:45:59;;;;;;;14.80;7.70;;;;;;;-3.43;56.38;100685.81;5032431;28;20522;-66
2022/12/09 00:48:25;;;;;;;18.67;8.18;;;;;;;-3.41;56.37;100693.53;5033311;28;20103;-64
2022/12/09 00:50:51;;;;;;;17.20;7.90;;;;;;;-3.47;56.06;100695.16;5030697;28;20041;-70
2022/12/09 00:53:17;;;;;;;17.42;8.40;;;;;;;-3.50;56.28;100695.09;5029201;28;20048;-70
2022/12/09 00:55:43;;;;;;;16.23;7.40;;;;;;;-3.50;56.36;100689.97;5026875;28;20035;-64
2022/12/09 00:58:08;;;;;;;17.52;7.85;;;;;;;-3.54;56.04;100698.47;5037130;28;20132;-64
2022/12/09 01:00:34;;;;;;;14.43;7.50;;;;;;;-3.55;56.38;100695.88;5037121;28;20037;-64
2022/12/09 01:02:59;;;;;;;12.52;6.95;;;;;;;-3.54;55.87;100692.47;5033537;28;20037;-72
2022/12/09 01:05:27;;;;;;;16.08;7.57;;;;;;;-3.70;55.87;100687.16;5029284;28;20570;-71
2022/12/09 01:07:53;;;;;;;17.08;7.88;;;;;;;-3.71;56.08;100690.53;5047480;28;20075;-72
2022/12/09 01:10:19;;;;;;;13.77;7.15;;;;;;;-3.59;55.78;100677.06;5032050;28;20029;-67
2022/12/09 01:12:45;;;;;;;19.23;8.38;;;;;;;-3.65;55.68;100687.22;5042886;28;20045;-65
2022/12/09 01:15:10;;;;;;;14.05;6.53;;;;;;;-3.71;56.03;100689.66;5033793;28;20549;-67
2022/12/09 01:17:37;;;;;;;15.70;7.75;;;;;;;-3.81;56.15;100692.91;5029427;28;20124;-66
2022/12/09 01:20:04;;;;;;;16.42;7.18;;;;;;;-3.78;55.92;100692.97;5029691;28;20172;-67
2022/12/09 01:22:30;;;;;;;16.45;8.35;;;;;;;-3.73;56.17;100692.19;5043636;28;20054;-66
2022/12/09 01:24:56;;;;;;;16.85;8.23;;;;;;;-3.79;56.29;100697.19;5029752;28;20075;-67
2022/12/09 01:27:21;;;;;;;16.13;6.97;;;;;;;-3.83;56.16;100692.91;5027461;28;20099;-65
2022/12/09 01:29:47;;;;;;;16.98;8.13;;;;;;;-3.80;56.26;100694.63;5029299;28;20117;-64
2022/12/09 01:32:15;;;;;;;14.40;7.40;;;;;;;-3.82;55.97;100691.19;5028077;28;20049;-65
2022/12/09 01:34:41;;;;;;;17.08;8.75;;;;;;;-3.76;56.19;100689.59;5028935;28;20032;-65
2022/12/09 01:37:06;;;;;;;18.85;7.85;;;;;;;-3.79;56.06;100686.13;5044205;28;20627;-65
2022/12/09 01:39:32;;;;;;;15.52;7.35;;;;;;;-3.79;56.07;100686.13;5029226;28;20025;-66
2022/12/09 01:42:00;;;;;;;18.67;8.23;;;;;;;-3.89;57.22;100690.22;5035183;28;21371;-66
2022/12/09 01:44:30;;;;;;;18.88;7.50;;;;;;;-3.75;56.40;100693.00;5028287;28;20120;-67
2022/12/09 01:47:01;;;;;;;16.98;8.75;;;;;;;-3.74;56.12;100689.59;5026840;28;20053;-68
2022/12/09 01:49:31;;;;;;;18.58;8.77;;;;;;;-3.73;56.35;100688.78;5031751;28;20033;-69
2022/12/09 01:52:21;;;;;;;18.35;7.63;;;;;;;-3.75;56.08;100690.44;5037405;28;20124;-69
2022/12/09 01:54:48;;;;;;;15.13;7.95;;;;;;;-3.79;55.89;100693.78;5033773;28;20077;-69
2022/12/09 01:57:15;;;;;;;14.63;6.20;;;;;;;-3.85;55.46;100686.03;5033692;28;20486;-69
2022/12/09 01:59:41;;;;;;;16.58;7.15;;;;;;;-3.89;55.80;100685.13;5045474;28;20034;-68
2022/12/09 02:02:12;;;;;;;13.85;6.50;;;;;;;-3.98;55.73;100690.94;5032162;28;20037;-68
2022/12/09 02:04:40;;;;;;;13.93;7.18;;;;;;;-3.93;55.63;100689.31;5032056;28;20029;-69
2022/12/09 02:07:09;;;;;;;12.73;6.85;;;;;;;-4.00;55.81;100687.50;5036785;28;20403;-69
2022/12/09 02:09:37;;;;;;;15.77;7.13;;;;;;;-3.93;55.43;100684.19;5011931;28;20040;-68
2022/12/09 02:12:19;;;;;;;14.38;7.78;;;;;;;-4.03;55.63;100682.34;5028271;28;20050;-69
2022/12/09 02:14:57;;;;;;;13.95;6.80;;;;;;;-4.08;55.86;100683.94;5030678;28;20037;-68
2022/12/09 02:17:47;;;;;;;19.75;9.25;;;;;;;-4.07;55.47;100675.47;5042297;28;20483;-68
2022/12/09 02:20:37;;;;;;;15.35;6.82;;;;;;;-4.04;55.28;100682.31;5044529;28;21050;-68
2022/12/09 02:23:07;;;;;;;12.68;7.22;;;;;;;-4.05;55.08;100675.47;5029824;28;20541;-68
2022/12/09 02:25:51;;;;;;;13.30;6.80;;;;;;;-4.17;55.56;100673.56;5031775;28;20037;-66
2022/12/09 02:28:23;;;;;;;13.32;6.47;;;;;;;-4.15;56.45;100677.00;5034574;28;20047;-67
2022/12/09 02:31:20;;;;;;;16.15;6.78;;;;;;;-3.97;56.34;100674.78;5042295;28;20513;-69
2022/12/09 02:34:08;;;;;;;17.00;6.55;;;;;;;-3.90;55.76;100671.50;5026037;28;20041;-68
2022/12/09 02:36:50;;;;;;;12.55;5.22;;;;;;;-3.91;56.25;100671.47;5030341;28;20068;-68
2022/12/09 02:39:21;;;;;;;13.75;7.43;;;;;;;-3.94;55.89;100666.31;5044609;28;20029;-68
2022/12/09 02:41:48;;;;;;;13.32;6.18;;;;;;;-3.93;55.91;100668.03;5028719;28;20474;-68
2022/12/09 02:44:18;;;;;;;12.30;6.93;;;;;;;-3.96;55.80;100668.00;5042673;28;20120;-68
2022/12/09 02:46:45;;;;;;;11.68;5.40;;;;;;;-3.98;55.47;100665.41;5041256;28;20051;-68
2022/12/09 02:49:13;;;;;;;14.23;5.78;;;;;;;-3.97;56.06;100661.16;5028804;28;20033;-67
2022/12/09 02:51:42;;;;;;;10.50;6.38;;;;;;;-3.94;56.00;100653.56;5027737;28;20498;-67
2022/12/09 02:54:14;;;;;;;9.13;5.03;;;;;;;-4.06;57.29;100651.63;5028000;28;20159;-67
2022/12/09 02:56:50;;;;;;;10.02;5.25;;;;;;;-3.94;56.68;100656.13;5027477;28;20546;-65
2022/12/09 02:59:16;;;;;;;17.25;5.57;;;;;;;-3.84;56.47;100667.31;5042088;28;20109;-65
2022/12/09 03:02:12;;;;;;;12.65;5.32;;;;;;;-3.89;57.09;100665.56;5026888;28;20490;-64
2022/12/09 03:04:41;;;;;;;9.73;5.45;;;;;;;-3.80;56.60;100666.53;5023289;28;20435;-64
2022/12/09 03:07:52;;;;;;;10.82;5.47;;;;;;;-3.81;55.93;100662.25;5043481;28;20049;-65
2022/12/09 03:10:35;;;;;;;10.13;5.13;;;;;;;-3.84;55.77;100664.78;5026539;28;20049;-65
2022/12/09 03:13:28;;;;;;;11.38;4.90;;;;;;;-3.84;55.73;100662.22;5045165;28;20041;-66
2022/12/09 03:16:18;;;;;;;16.67;5.90;;;;;;;-3.96;56.20;100662.88;5043126;28;20118;-65
2022/12/09 03:18:49;;;;;;;11.63;5.68;;;;;;;-3.94;56.04;100662.06;5009170;28;20152;-65
2022/12/09 03:21:20;;;;;;;12.20;5.28;;;;;;;-3.96;56.13;100663.75;5008331;28;20029;-65
2022/12/09 03:23:45;;;;;;;10.57;4.63;;;;;;;-3.96;55.81;100662.88;5031109;28;20041;-67
2022/12/09 03:26:14;;;;;;;9.35;4.70;;;;;;;-3.97;55.59;100667.09;5027060;28;20033;-64
2022/12/09 03:28:46;;;;;;;9.88;4.35;;;;;;;-3.98;55.30;100665.41;5024181;28;20052;-65
2022/12/09 03:31:16;;;;;;;10.70;5.13;;;;;;;-4.07;55.40;100662.69;5010454;28;20487;-67
2022/12/09 03:33:45;;;;;;;13.18;5.18;;;;;;;-4.14;55.98;100658.34;5025679;28;20075;-68
2022/12/09 03:36:14;;;;;;;11.23;4.63;;;;;;;-4.10;55.96;100657.53;5029715;28;20201;-69
2022/12/09 03:38:42;;;;;;;8.30;4.40;;;;;;;-4.08;56.23;100650.75;5007664;28;20457;-70
2022/12/09 03:41:22;;;;;;;10.13;4.22;;;;;;;-4.09;56.61;100641.41;5007168;28;20411;-70
2022/12/09 03:44:02;;;;;;;11.00;4.57;;;;;;;-4.03;56.60;100645.72;5005527;28;20034;-70
2022/12/09 03:46:28;;;;;;;9.95;4.07;;;;;;;-3.98;56.07;100634.75;5008311;28;20184;-70
2022/12/09 03:48:56;;;;;;;7.85;4.47;;;;;;;-4.04;55.90;100634.66;5024300;28;20049;-70
2022/12/09 03:51:29;;;;;;;10.50;5.05;;;;;;;-4.02;56.00;100637.25;5028321;28;20064;-68
2022/12/09 03:54:02;;;;;;;11.27;4.43;;;;;;;-4.05;56.80;100635.50;5033995;28;20140;-67
2022/12/09 03:56:32;;;;;;;16.75;5.45;;;;;;;-4.00;57.17;100636.44;5027931;28;20071;-66
2022/12/09 03:59:00;;;;;;;12.85;4.53;;;;;;;-3.84;56.25;100631.56;5026834;28;20043;-66
2022/12/09 04:01:28;;;;;;;13.23;4.82;;;;;;;-3.88;56.09;100631.50;5026727;28;20040;-67
2022/12/09 04:03:55;;;;;;;8.68;4.55;;;;;;;-3.89;56.13;100639.16;5024543;28;20064;-64
2022/12/09 04:06:21;;;;;;;10.43;4.57;;;;;;;-3.93;56.48;100622.91;5027842;28;20040;-66
2022/12/09 04:08:46;;;;;;;15.75;4.63;;;;;;;-3.95;56.81;100634.81;5006285;28;20049;-66
2022/12/09 04:11:12;;;;;;;9.68;4.38;;;;;;;-4.06;57.34;100636.31;5006778;28;20406;-66
2022/12/09 04:13:37;;;;;;;10.52;4.82;;;;;;;-3.99;56.32;100640.69;5004579;28;20069;-67
2022/12/09 04:16:03;;;;;;;10.18;4.30;;;;;;;-3.96;56.30;100640.75;5007454;28;20025;-67
2022/12/09 04:18:28;;;;;;;14.98;4.97;;;;;;;-3.99;56.55;100634.72;5007087;28;20057;-66
2022/12/09 04:20:54;;;;;;;8.63;4.15;;;;;;;-3.96;56.33;100637.34;5004842;28;20223;-65
2022/12/09 04:23:19;;;;;;;9.77;3.92;;;;;;;-3.97;56.06;100636.47;5006453;28;20041;-66
2022/12/09 04:25:45;;;;;;;11.45;4.57;;;;;;;-4.04;56.46;100641.47;5005375;28;20038;-67
2022/12/09 04:28:10;;;;;;;7.68;3.85;;;;;;;-3.94;56.13;100639.09;5006436;28;20038;-69
2022/12/09 04:30:36;;;;;;;9.40;4.43;;;;;;;-3.99;55.92;100638.13;5020526;28;20443;-68
2022/12/09 04:33:01;;;;;;;19.95;4.88;;;;;;;-4.04;56.47;100634.66;5007350;28;20038;-69
2022/12/09 04:35:27;;;;;;;15.40;6.10;;;;;;;-3.99;56.08;100637.28;5006560;28;20072;-69
2022/12/09 04:37:53;;;;;;;11.35;5.43;;;;;;;-4.00;56.27;100639.00;4997943;28;20413;-70
2022/12/09 04:40:19;;;;;;;11.85;3.47;;;;;;;-4.01;56.30;100639.84;5026689;28;20033;-69
2022/12/09 04:42:45;;;;;;;11.27;3.95;;;;;;;-4.17;57.82;100632.75;5039186;28;20049;-67
2022/12/09 04:45:11;;;;;;;10.25;3.70;;;;;;;-4.03;57.35;100633.84;5025416;28;20044;-68
2022/12/09 04:47:36;;;;;;;9.70;5.40;;;;;;;-3.99;56.68;100635.59;5023629;28;20353;-68
2022/12/09 04:50:03;;;;;;;11.70;5.22;;;;;;;-3.90;56.37;100633.22;5024662;28;20045;-68
2022/12/09 04:52:29;;;;;;;10.75;4.15;;;;;;;-4.00;56.69;100626.22;5025097;28;20132;-66
2022/12/09 04:54:55;;;;;;;9.32;3.60;;;;;;;-3.96;56.07;100633.09;5024496;28;20493;-68
2022/12/09 04:57:20;;;;;;;8.13;3.88;;;;;;;-4.03;55.92;100633.84;5025889;28;20275;-74
2022/12/09 04:59:46;;;;;;;8.50;4.05;;;;;;;-4.03;56.16;100631.28;5040502;28;20033;-69
2022/12/09 05:02:11;;;;;;;9.68;4.55;;;;;;;-4.07;56.40;100632.06;5025194;28;20041;-69
2022/12/09 05:04:37;;;;;;;14.18;4.32;;;;;;;-4.00;56.11;100631.31;5025414;28;20041;-69
2022/12/09 05:07:02;;;;;;;11.50;5.38;;;;;;;-3.95;56.07;100633.94;5026786;28;20051;-70
2022/12/09 05:09:28;;;;;;;9.90;4.25;;;;;;;-4.00;56.26;100633.88;5022922;28;20029;-68
2022/12/09 05:11:56;;;;;;;13.10;4.72;;;;;;;-4.06;56.23;100631.22;5023643;28;20476;-68
2022/12/09 05:14:21;;;;;;;11.10;5.13;;;;;;;-4.04;56.25;100629.56;5028080;28;20029;-68
2022/12/09 05:16:47;;;;;;;12.18;4.70;;;;;;;-4.04;56.24;100624.44;5022602;28;20048;-68
2022/12/09 05:19:12;;;;;;;10.13;4.22;;;;;;;-4.04;56.24;100627.00;5026720;28;20119;-66
2022/12/09 05:21:38;;;;;;;9.48;4.25;;;;;;;-4.00;56.33;100623.66;5022489;28;20037;-66
2022/12/09 05:24:03;;;;;;;13.82;5.63;;;;;;;-4.00;56.13;100627.94;5027951;28;20346;-69
2022/12/09 05:26:29;;;;;;;10.38;4.80;;;;;;;-4.01;56.19;100623.63;5026812;28;20041;-70
2022/12/09 05:28:55;;;;;;;15.00;5.63;;;;;;;-4.04;56.29;100616.78;5028989;28;20053;-68
2022/12/09 05:31:22;;;;;;;9.23;5.15;;;;;;;-4.00;56.18;100622.81;5030029;28;20029;-68
2022/12/09 05:33:49;;;;;;;8.80;4.50;;;;;;;-4.01;55.95;100614.31;5027976;28;20109;-70
2022/12/09 05:36:17;;;;;;;10.82;5.55;;;;;;;-4.03;55.82;100610.88;5044937;28;20572;-65
2022/12/09 05:38:43;;;;;;;15.40;6.75;;;;;;;-4.11;56.37;100618.38;5025681;28;20045;-65
2022/12/09 05:41:09;;;;;;;11.90;5.53;;;;;;;-4.09;56.58;100626.06;5044113;28;20434;-67
2022/12/09 05:43:35;;;;;;;16.17;6.35;;;;;;;-4.06;56.33;100617.59;5027208;28;20053;-69
2022/12/09 05:46:02;;;;;;;11.07;5.60;;;;;;;-4.06;55.93;100625.25;5031864;28;20099;-69
2022/12/09 05:48:28;;;;;;;14.52;6.53;;;;;;;-4.10;55.84;100624.34;5028102;28;20041;-68
2022/12/09 05:51:01;;;;;;;16.05;6.32;;;;;;;-4.10;55.74;100625.22;5027699;28;20033;-70
2022/12/09 05:53:28;;;;;;;9.60;4.53;;;;;;;-4.15;55.68;100621.72;5028595;28;20041;-68
2022/12/09 05:55:53;;;;;;;16.10;5.32;;;;;;;-4.17;56.10;100617.41;5028678;28;20067;-67
2022/12/09 05:58:19;;;;;;;12.88;5.88;;;;;;;-4.22;56.42;100617.34;5028239;28;20045;-66
2022/12/09 06:00:45;;;;;;;12.85;5.63;;;;;;;-4.16;55.75;100616.59;5025768;28;20013;-68
2022/12/09 06:03:10;;;;;;;14.02;6.18;;;;;;;-4.16;56.03;100621.72;5029843;28;20041;-69
2022/12/09 06:05:36;;;;;;;12.40;6.05;;;;;;;-4.30;56.20;100619.78;5029187;28;20033;-68
2022/12/09 06:08:03;;;;;;;13.05;5.97;;;;;;;-4.22;56.20;100621.59;5028858;28;20261;-69
2022/12/09 06:10:28;;;;;;;9.20;5.45;;;;;;;-4.23;56.25;100623.31;5028404;28;20387;-67
2022/12/09 06:12:55;;;;;;;14.07;5.88;;;;;;;-4.21;56.49;100626.75;5041251;28;20072;-67
2022/12/09 06:15:21;;;;;;;13.05;5.50;;;;;;;-4.20;56.14;100622.50;5027482;28;20040;-66
2022/12/09 06:17:46;;;;;;;13.80;7.35;;;;;;;-4.22;56.35;100630.09;5027741;28;20491;-66
2022/12/09 06:20:12;;;;;;;15.20;6.80;;;;;;;-4.28;56.75;100618.94;5029461;28;20425;-68
2022/12/09 06:22:37;;;;;;;21.48;6.63;;;;;;;-4.20;56.69;100617.38;5041675;28;20406;-67
2022/12/09 06:25:04;;;;;;;12.60;5.80;;;;;;;-4.20;56.44;100622.50;5032115;28;20033;-68
2022/12/09 06:27:29;;;;;;;12.82;5.93;;;;;;;-4.21;56.46;100615.66;5042083;28;20370;-69
2022/12/09 06:29:55;;;;;;;13.35;4.97;;;;;;;-4.16;56.45;100614.06;5033085;28;20033;-69
2022/12/09 06:32:21;;;;;;;16.92;6.90;;;;;;;-4.16;56.21;100616.59;5035906;28;20067;-69
2022/12/09 06:34:46;;;;;;;14.65;5.57;;;;;;;-4.20;56.71;100612.28;5032202;28;20417;-70
2022/12/09 06:37:14;;;;;;;12.55;6.32;;;;;;;-4.19;56.61;100617.38;5033869;28;20056;-69
2022/12/09 06:39:39;;;;;;;11.35;5.72;;;;;;;-4.16;56.46;100619.16;5027883;28;20053;-69
2022/12/09 06:42:05;;;;;;;25.05;7.55;;;;;;;-4.19;56.19;100624.19;5029759;28;20064;-68
2022/12/09 06:44:30;;;;;;;15.75;7.05;;;;;;;-4.31;57.05;100625.72;5029957;28;20103;-69
2022/12/09 06:46:56;;;;;;;15.52;7.10;;;;;;;-4.21;56.38;100616.53;5027760;28;20060;-67
2022/12/09 06:49:21;;;;;;;19.30;7.35;;;;;;;-4.30;57.17;100618.91;5029009;28;20529;-68
2022/12/09 06:51:47;;;;;;;15.00;7.10;;;;;;;-4.21;56.69;100615.66;5027413;28;20065;-67
2022/12/09 06:54:12;;;;;;;17.30;6.05;;;;;;;-4.16;56.42;100614.06;5047649;28;20031;-66
2022/12/09 06:56:38;;;;;;;19.48;7.30;;;;;;;-4.19;57.11;100609.72;5026597;28;20616;-68
2022/12/09 06:59:08;;;;;;;20.25;7.03;;;;;;;-4.19;57.69;100608.88;5027791;28;20032;-68
2022/12/09 07:01:34;;;;;;;19.83;7.25;;;;;;;-4.16;57.78;100608.94;5039026;28;20039;-67
2022/12/09 07:03:59;;;;;;;12.68;6.38;;;;;;;-4.27;58.07;100616.41;5033047;28;20036;-67
2022/12/09 07:06:32;;;;;;;16.50;6.85;;;;;;;-4.04;57.27;100621.91;5041400;28;20030;-67
2022/12/09 07:09:00;;;;;;;16.40;7.05;;;;;;;-4.08;57.23;100612.47;5025717;28;20055;-66
2022/12/09 07:11:26;;;;;;;18.30;7.68;;;;;;;-3.98;57.20;100624.56;5028543;28;20094;-68
2022/12/09 07:13:51;;;;;;;17.50;6.63;;;;;;;-4.01;57.07;100623.63;5024590;28;20037;-68
2022/12/09 07:16:17;;;;;;;19.10;7.10;;;;;;;-4.05;57.00;100609.97;5028058;28;20099;-67
2022/12/09 07:18:43;;;;;;;15.98;5.65;;;;;;;-3.98;56.85;100613.50;5026628;28;20041;-68
2022/12/09 07:21:11;;;;;;;21.30;7.85;;;;;;;-4.03;57.20;100615.97;5035363;28;20513;-68
2022/12/09 07:23:37;;;;;;;20.77;9.13;;;;;;;-4.20;58.16;100612.28;5026177;28;20052;-68
2022/12/09 07:26:05;;;;;;;16.50;6.95;;;;;;;-3.98;57.44;100616.91;5042222;28;20025;-68
2022/12/09 07:28:32;;;;;;;16.33;8.05;;;;;;;-3.95;57.19;100614.38;5028071;28;20627;-67
2022/12/09 07:30:58;;;;;;;14.65;6.40;;;;;;;-3.88;56.75;100616.19;5025787;28;20040;-69
2022/12/09 07:33:23;;;;;;;14.23;7.32;;;;;;;-4.00;57.51;100615.16;5025010;28;20041;-69
2022/12/09 07:35:49;;;;;;;18.08;7.95;;;;;;;-3.92;57.23;100606.78;5024464;28;20026;-67
2022/12/09 07:38:14;;;;;;;20.17;8.48;;;;;;;-3.97;57.12;100613.50;5024877;28;20138;-67
2022/12/09 07:40:40;;;;;;;19.02;6.45;;;;;;;-3.89;57.01;100608.53;5032594;28;20111;-68
2022/12/09 07:43:09;;;;;;;18.50;7.55;;;;;;;-3.80;56.77;100610.34;5027138;28;20044;-67
2022/12/09 07:45:36;;;;;;;15.52;6.53;;;;;;;-3.75;56.44;100616.38;5027539;28;20071;-67
2022/12/09 07:48:02;;;;;;;19.38;7.13;;;;;;;-3.84;56.79;100621.34;5027332;28;20509;-68
2022/12/09 07:50:27;;;;;;;18.25;7.45;;;;;;;-3.77;56.19;100620.59;5027791;28;20025;-67
2022/12/09 07:52:52;;;;;;;21.13;8.55;;;;;;;-3.78;56.85;100619.75;5026292;28;20052;-65
2022/12/09 07:55:18;;;;;;;19.77;8.15;;;;;;;-3.55;57.03;100630.31;5025337;28;20128;-68
2022/12/09 07:57:43;;;;;;;17.25;8.10;;;;;;;-3.49;56.53;100634.66;5025303;28;20037;-69
2022/12/09 08:00:10;;;;;;;18.02;7.72;;;;;;;-3.64;56.59;100632.72;5025906;28;20119;-67
2022/12/09 08:02:38;;;;;;;17.75;7.55;;;;;;;-3.76;57.13;100635.13;5025002;28;20048;-68
2022/12/09 08:05:04;;;;;;;20.67;8.15;;;;;;;-3.51;56.53;100637.19;5024162;28;20459;-68
2022/12/09 08:07:30;;;;;;;18.92;7.85;;;;;;;-3.38;56.62;100632.25;5025122;28;20049;-68
2022/12/09 08:09:56;;;;;;;17.90;7.28;;;;;;;-3.13;56.81;100626.59;5024045;28;20037;-67
2022/12/09 08:12:22;;;;;;;16.13;7.20;;;;;;;-3.02;56.16;100631.00;5021970;28;20041;-70
2022/12/09 08:14:48;;;;;;;19.35;8.05;;;;;;;-3.03;56.39;100634.38;5028032;28;20033;-67
2022/12/09 08:17:13;;;;;;;19.85;8.07;;;;;;;-3.09;55.72;100630.06;5024547;28;20041;-71
2022/12/09 08:19:39;;;;;;;22.42;8.57;;;;;;;-3.19;56.33;100631.63;5026920;28;20029;-69
2022/12/09 08:22:04;;;;;;;18.40;7.80;;;;;;;-3.35;56.43;100638.25;5022330;28;20067;-70
2022/12/09 08:24:30;;;;;;;19.15;8.60;;;;;;;-3.07;56.25;100636.91;5041408;28;20039;-69
2022/12/09 08:26:56;;;;;;;18.05;6.95;;;;;;;-2.99;56.29;100639.56;5026102;28;20544;-71
2022/12/09 08:29:21;;;;;;;16.30;7.53;;;;;;;-2.98;56.34;100645.53;5022523;28;20030;-69
2022/12/09 08:31:46;;;;;;;18.60;8.25;;;;;;;-2.72;56.42;100646.69;5022829;28;20490;-67
2022/12/09 08:34:13;;;;;;;21.65;8.27;;;;;;;-2.47;56.63;100646.94;5040198;28;20052;-67
2022/12/09 08:36:38;;;;;;;14.30;7.75;;;;;;;-2.53;55.80;100652.03;5025067;28;20041;-66
2022/12/09 08:39:04;;;;;;;22.20;8.43;;;;;;;-2.76;55.82;100647.53;5005853;28;20029;-67
2022/12/09 08:41:34;;;;;;;21.92;8.48;;;;;;;-2.48;56.07;100656.34;5013648;28;20421;-67
2022/12/09 08:44:18;;;;;;;25.58;10.32;;;;;;;-2.38;55.35;100657.31;5004871;28;20040;-68
2022/12/09 08:46:48;;;;;;;22.02;9.15;;;;;;;-1.62;56.33;100646.81;5031742;28;20410;-67
2022/12/09 08:49:19;;;;;;;21.88;8.48;;;;;;;-0.85;53.72;100646.41;5009555;28;20049;-68
2022/12/09 08:51:46;;;;;;;17.55;8.65;;;;;;;-0.72;52.74;100645.59;5003497;28;20072;-68
2022/12/09 08:54:12;;;;;;;19.42;9.07;;;;;;;-0.97;53.26;100649.78;5007757;28;20446;-67
2022/12/09 08:56:37;;;;;;;25.17;9.18;;;;;;;-1.41;53.76;100648.66;5006694;28;20029;-68
2022/12/09 08:59:03;;;;;;;26.73;8.88;;;;;;;-1.64;54.14;100652.78;5004841;28;20042;-68
2022/12/09 09:01:33;;;;;;;25.83;11.50;;;;;;;-1.69;55.41;100646.75;5006951;28;20028;-68
2022/12/09 09:04:07;;;;;;;22.13;9.07;;;;;;;-1.53;55.19;100648.59;5007975;28;20590;-68
2022/12/09 09:06:34;;;;;;;15.52;7.88;;;;;;;-1.56;54.29;100643.44;5007189;28;20069;-66
2022/12/09 09:09:00;;;;;;;17.88;8.07;;;;;;;-1.21;54.54;100642.78;5033825;28;20079;-67
2022/12/09 09:11:26;;;;;;;26.80;8.77;;;;;;;-0.93;54.59;100642.94;5028195;28;20512;-66
2022/12/09 09:13:51;;;;;;;20.67;8.20;;;;;;;-0.81;54.29;100648.13;5025971;28;20107;-68
2022/12/09 09:16:22;;;;;;;27.83;9.02;;;;;;;-0.78;53.44;100637.84;5012970;28;20033;-68
2022/12/09 09:18:49;;;;;;;20.95;8.65;;;;;;;-0.61;53.67;100636.19;5041862;28;20132;-65
2022/12/09 09:21:19;;;;;;;18.40;8.82;;;;;;;-0.66;53.61;100648.19;5024983;28;20512;-66
2022/12/09 09:23:45;;;;;;;25.25;9.75;;;;;;;-0.81;52.69;100648.13;5011489;28;20084;-67
2022/12/09 09:26:13;;;;;;;20.25;8.93;;;;;;;-0.86;53.66;100644.66;5007734;28;20472;-67
2022/12/09 09:28:39;;;;;;;20.42;9.35;;;;;;;-1.10;54.39;100641.13;5021053;28;20052;-69
2022/12/09 09:31:06;;;;;;;21.63;9.50;;;;;;;-1.01;53.71;100646.31;5026493;28;20037;-67
2022/12/09 09:33:31;;;;;;;18.20;7.85;;;;;;;-1.08;54.58;100648.84;5025634;28;20183;-68
2022/12/09 09:35:59;;;;;;;21.85;8.00;;;;;;;-1.01;54.70;100650.59;5029709;28;20444;-67
2022/12/09 09:38:26;;;;;;;20.35;8.52;;;;;;;-0.85;54.56;100656.66;5026946;28;20060;-67
2022/12/09 09:40:52;;;;;;;19.63;8.52;;;;;;;-0.70;54.88;100659.28;5024990;28;20033;-68
2022/12/09 09:43:22;;;;;;;15.73;8.98;;;;;;;-0.57;54.43;100663.59;5021119;28;20030;-68
2022/12/09 09:45:49;;;;;;;21.45;8.40;;;;;;;-0.28;54.76;100665.38;5030760;28;20029;-67
2022/12/09 09:48:20;;;;;;;23.27;9.65;;;;;;;-0.03;52.92;100671.38;5020536;28;20046;-67
2022/12/09 09:50:54;;;;;;;24.70;9.40;;;;;;;0.12;51.55;100665.38;5022962;28;20040;-68
2022/12/09 09:53:29;;;;;;;19.45;8.95;;;;;;;0.01;51.63;100667.97;5036555;28;20301;-67
2022/12/09 09:55:59;;;;;;;22.90;10.45;;;;;;;0.00;52.53;100666.25;5027269;28;20705;-67
2022/12/09 09:58:44;;;;;;;23.42;8.57;;;;;;;0.02;51.96;100663.69;5013022;28;20447;-66
2022/12/09 10:01:15;;;;;;;19.33;8.90;;;;;;;0.27;52.70;100649.94;5006733;28;20037;-67
2022/12/09 10:04:14;;;;;;;21.77;8.98;;;;;;;-0.10;51.57;100649.13;5019408;28;20120;-67
2022/12/09 10:06:57;;;;;;;17.75;8.35;;;;;;;0.38;53.18;100651.66;5005340;28;20037;-66
2022/12/09 10:09:40;;;;;;;18.02;8.38;;;;;;;0.43;52.16;100655.06;5005864;28;20029;-66
2022/12/09 10:12:26;;;;;;;19.38;8.68;;;;;;;0.76;52.70;100661.03;5003497;28;20173;-67
2022/12/09 10:15:00;;;;;;;24.30;8.70;;;;;;;1.06;52.13;100654.91;5019460;28;20029;-67
2022/12/09 10:17:27;;;;;;;18.67;9.30;;;;;;;1.27;52.13;100656.53;5004804;28;20040;-66
2022/12/09 10:20:04;;;;;;;21.58;8.32;;;;;;;1.44;51.27;100649.63;5002615;28;20048;-67
2022/12/09 10:22:40;;;;;;;21.60;8.68;;;;;;;1.57;50.81;100654.69;5010553;28;20037;-67
2022/12/09 10:25:19;;;;;;;20.75;8.85;;;;;;;2.01;50.84;100651.78;5026330;28;20045;-66
2022/12/09 10:28:16;;;;;;;19.42;9.20;;;;;;;2.57;48.77;100636.66;5015250;28;20088;-68
2022/12/09 10:30:42;;;;;;;22.67;8.52;;;;;;;2.49;47.97;100633.31;5004183;28;20077;-66
2022/12/09 10:33:12;;;;;;;18.30;8.90;;;;;;;2.65;47.95;100637.44;5018126;28;20640;-68
2022/12/09 10:35:39;;;;;;;17.77;7.60;;;;;;;2.54;48.07;100632.38;5027259;28;20555;-67
2022/12/09 10:38:12;;;;;;;18.15;7.72;;;;;;;2.14;48.53;100637.09;5026343;28;20045;-68
2022/12/09 10:40:44;;;;;;;16.00;8.10;;;;;;;2.12;47.77;100638.81;5033905;28;20082;-68
2022/12/09 10:43:42;;;;;;;19.20;9.32;;;;;;;1.10;48.54;100639.47;5027899;28;20053;-68
2022/12/09 10:46:14;;;;;;;15.23;7.78;;;;;;;1.30;49.25;100641.06;5025625;28;20037;-68
2022/12/09 10:48:51;;;;;;;16.85;8.25;;;;;;;1.50;49.81;100641.84;5006294;28;20053;-68
2022/12/09 10:51:21;;;;;;;21.17;9.10;;;;;;;1.32;49.59;100653.06;5007842;28;20473;-67
2022/12/09 10:54:05;;;;;;;23.00;9.65;;;;;;;1.41;48.91;100648.75;5019877;28;20094;-69
2022/12/09 10:56:33;;;;;;;18.55;8.55;;;;;;;1.51;49.41;100651.28;5030872;28;20377;-68
2022/12/09 10:59:22;;;;;;;24.05;9.00;;;;;;;1.22;50.08;100650.56;5024750;28;20056;-68
2022/12/09 11:01:59;;;;;;;16.52;8.60;;;;;;;0.65;51.40;100646.47;5022702;28;20070;-67
2022/12/09 11:04:29;;;;;;;25.25;9.70;;;;;;;0.40;51.47;100640.50;5040408;28;20037;-68
2022/12/09 11:07:00;;;;;;;18.48;8.52;;;;;;;0.99;50.71;100641.22;5028414;28;20061;-67
2022/12/09 11:09:34;;;;;;;16.50;9.07;;;;;;;1.11;50.53;100643.72;5025555;28;20026;-67
2022/12/09 11:12:02;;;;;;;17.10;8.82;;;;;;;1.27;50.01;100646.25;5021546;28;20069;-66
2022/12/09 11:14:38;;;;;;;16.80;8.90;;;;;;;0.94;49.81;100642.94;5026004;28;20022;-69
2022/12/09 11:17:38;;;;;;;21.33;10.27;;;;;;;1.12;51.27;100636.84;5024260;28;20557;-67
2022/12/09 11:20:04;;;;;;;27.02;9.38;;;;;;;0.93;50.60;100641.25;5026482;28;20021;-68
2022/12/09 11:22:41;;;;;;;19.02;9.82;;;;;;;1.22;50.07;100629.97;5025659;28;20048;-67
2022/12/09 11:25:26;;;;;;;20.08;9.43;;;;;;;1.58;49.23;100635.81;5027834;28;20402;-68
2022/12/09 11:27:59;;;;;;;20.08;10.02;;;;;;;0.82;49.61;100635.28;5032245;28;20132;-67
2022/12/09 11:30:38;;;;;;;28.52;9.98;;;;;;;1.26;49.98;100629.06;5026607;28;20520;-68